createdAt,value
2023-04-18T00:02:18.600Z,28.27
2023-04-18T00:04:47.811Z,27.23
2023-04-18T00:07:16.032Z,26.80
2023-04-18T00:09:43.680Z,28.48
2023-04-18T00:12:12.028Z,26.25
2023-04-18T00:14:41.002Z,28.15
2023-04-18T00:17:09.421Z,27.20
2023-04-18T00:19:38.604Z,25.60
2023-04-18T00:22:08.539Z,27.80
2023-04-18T00:24:36.004Z,25.52
2023-04-18T00:27:03.521Z,28.27
2023-04-18T00:29:31.742Z,25.52
2023-04-18T00:31:59.233Z,24.15
2023-04-18T00:34:26.717Z,24.65
2023-04-18T00:36:54.226Z,25.52
2023-04-18T00:39:23.049Z,26.25
2023-04-18T00:41:50.540Z,24.90
2023-04-18T00:44:18.095Z,24.05
2023-04-18T00:46:45.581Z,26.38
2023-04-18T00:49:13.366Z,26.17
2023-04-18T00:51:41.097Z,25.77
2023-04-18T00:54:08.959Z,26.02
2023-04-18T00:56:37.888Z,24.88
2023-04-18T00:59:06.089Z,25.02
2023-04-18T01:01:33.821Z,23.70
2023-04-18T01:04:01.491Z,25.65
2023-04-18T01:06:29.971Z,26.42
2023-04-18T01:08:57.835Z,26.45
2023-04-18T01:11:25.395Z,26.10
2023-04-18T01:14:03.925Z,25.70
2023-04-18T01:16:33.208Z,24.40
2023-04-18T01:19:01.097Z,25.35
2023-04-18T01:21:31.155Z,26.58
2023-04-18T01:24:01.176Z,24.63
2023-04-18T01:26:30.401Z,23.58
2023-04-18T01:28:57.880Z,27.00
2023-04-18T01:31:25.501Z,25.20
2023-04-18T01:33:53.070Z,24.33
2023-04-18T01:36:20.723Z,22.70
2023-04-18T01:38:48.204Z,21.40
2023-04-18T01:41:22.977Z,21.45
2023-04-18T01:43:51.759Z,21.52
2023-04-18T01:46:19.635Z,22.00
2023-04-18T01:48:47.225Z,20.55
2023-04-18T01:51:14.980Z,19.67
2023-04-18T01:53:42.923Z,18.55
2023-04-18T01:56:11.103Z,18.70
2023-04-18T01:58:38.644Z,18.60
2023-04-18T02:01:07.574Z,17.95
2023-04-18T02:03:35.387Z,19.52
2023-04-18T02:06:04.812Z,18.60
2023-04-18T02:08:35.472Z,17.77
2023-04-18T02:11:03.033Z,17.52
2023-04-18T02:13:31.038Z,19.48
2023-04-18T02:15:58.593Z,18.15
2023-04-18T02:18:27.951Z,17.92
2023-04-18T02:20:55.416Z,18.33
2023-04-18T02:23:22.943Z,17.48
2023-04-18T02:25:50.845Z,17.05
2023-04-18T02:28:18.702Z,17.88
2023-04-18T02:30:46.271Z,17.75
2023-04-18T02:33:13.806Z,17.92
2023-04-18T02:35:42.546Z,18.10
2023-04-18T02:38:10.119Z,17.00
2023-04-18T02:40:37.586Z,17.23
2023-04-18T02:43:05.006Z,16.63
2023-04-18T02:45:32.777Z,17.02
2023-04-18T02:48:00.320Z,16.58
2023-04-18T02:50:29.130Z,16.17
2023-04-18T02:52:57.944Z,16.25
2023-04-18T02:55:26.918Z,16.05
2023-04-18T02:57:54.479Z,17.73
2023-04-18T03:00:22.057Z,17.85
2023-04-18T03:02:49.627Z,18.98
2023-04-18T03:05:17.539Z,18.73
2023-04-18T03:07:45.132Z,16.75
2023-04-18T03:10:13.924Z,17.52
2023-04-18T03:12:41.448Z,19.17
2023-04-18T03:15:09.687Z,18.73
2023-04-18T03:17:37.267Z,18.20
2023-04-18T03:20:05.675Z,19.75
2023-04-18T03:22:33.231Z,19.70
2023-04-18T03:25:01.084Z,19.15
2023-04-18T03:27:29.883Z,17.63
2023-04-18T03:29:57.339Z,17.15
2023-04-18T03:32:24.889Z,19.05
2023-04-18T03:34:52.366Z,17.33
2023-04-18T03:37:19.829Z,18.05
2023-04-18T03:39:47.285Z,17.83
2023-04-18T03:42:14.715Z,17.38
2023-04-18T03:44:43.489Z,17.60
2023-04-18T03:47:11.031Z,17.90
2023-04-18T03:49:39.087Z,17.00
2023-04-18T03:52:06.585Z,17.35
2023-04-18T03:54:34.061Z,18.13
2023-04-18T03:57:03.042Z,19.08
2023-04-18T03:59:30.955Z,17.67
2023-04-18T04:01:59.991Z,17.80
2023-04-18T04:04:27.732Z,17.60
2023-04-18T04:06:55.980Z,16.15
2023-04-18T04:09:23.889Z,16.90
2023-04-18T04:11:51.407Z,16.83
2023-04-18T04:14:18.991Z,16.70
2023-04-18T04:16:46.608Z,17.02
2023-04-18T04:19:15.874Z,17.17
2023-04-18T04:21:43.385Z,16.27
2023-04-18T04:24:10.870Z,16.52
2023-04-18T04:26:38.418Z,15.82
2023-04-18T04:29:06.039Z,16.83
2023-04-18T04:31:33.530Z,15.23
2023-04-18T04:34:01.763Z,15.13
2023-04-18T04:36:30.702Z,17.65
2023-04-18T04:38:58.187Z,15.65
2023-04-18T04:41:25.746Z,16.40
2023-04-18T04:43:53.910Z,16.40
2023-04-18T04:46:23.367Z,14.23
2023-04-18T04:48:51.436Z,15.65
2023-04-18T04:51:27.995Z,14.93
2023-04-18T04:53:56.829Z,16.70
2023-04-18T04:56:24.503Z,15.85
2023-04-18T04:58:53.025Z,16.98
2023-04-18T05:01:20.696Z,15.35
2023-04-18T05:03:48.507Z,16.83
2023-04-18T05:06:20.529Z,15.75
2023-04-18T05:08:48.199Z,16.30
2023-04-18T05:11:17.121Z,15.48
2023-04-18T05:13:44.671Z,16.55
2023-04-18T05:16:12.190Z,15.93
2023-04-18T05:18:41.322Z,16.20
2023-04-18T05:21:08.932Z,15.98
2023-04-18T05:23:37.337Z,15.70
2023-04-18T05:26:05.196Z,15.50
2023-04-18T05:28:33.994Z,16.23
2023-04-18T05:31:02.158Z,15.93
2023-04-18T05:33:29.938Z,16.45
2023-04-18T05:35:58.126Z,15.43
2023-04-18T05:38:25.905Z,17.10
2023-04-18T05:40:55.557Z,16.58
2023-04-18T05:43:23.400Z,15.88
2023-04-18T05:45:54.732Z,16.05
2023-04-18T05:48:25.151Z,16.20
2023-04-18T05:50:52.657Z,15.88
2023-04-18T05:53:20.320Z,14.85
2023-04-18T05:55:48.854Z,15.23
2023-04-18T05:58:16.535Z,15.98
2023-04-18T06:00:44.214Z,16.17
2023-04-18T06:03:13.191Z,16.20
2023-04-18T06:05:41.041Z,15.65
2023-04-18T06:08:08.552Z,15.63
2023-04-18T06:10:38.897Z,16.08
2023-04-18T06:13:06.723Z,16.38
2023-04-18T06:15:35.370Z,14.90
2023-04-18T06:18:02.939Z,14.82
2023-04-18T06:20:31.919Z,15.70
2023-04-18T06:22:59.411Z,15.40
2023-04-18T06:25:26.870Z,15.85
2023-04-18T06:27:54.421Z,14.90
2023-04-18T06:30:22.322Z,15.60
2023-04-18T06:32:49.954Z,14.00
2023-04-18T06:35:17.900Z,15.07
2023-04-18T06:37:46.864Z,14.52
2023-04-18T06:40:14.639Z,14.90
2023-04-18T06:42:43.099Z,14.55
2023-04-18T06:45:12.051Z,14.63
2023-04-18T06:47:39.986Z,15.07
2023-04-18T06:50:08.970Z,15.48
2023-04-18T06:52:40.503Z,13.85
2023-04-18T06:55:10.105Z,14.43
2023-04-18T06:57:37.769Z,14.95
2023-04-18T07:00:06.276Z,13.80
2023-04-18T07:02:33.999Z,16.00
2023-04-18T07:05:01.659Z,15.27
2023-04-18T07:07:29.313Z,13.75
2023-04-18T07:09:57.184Z,14.25
2023-04-18T07:12:26.159Z,14.50
2023-04-18T07:14:53.645Z,13.77
2023-04-18T07:17:21.178Z,12.95
2023-04-18T07:19:48.829Z,14.13
2023-04-18T07:22:16.271Z,14.23
2023-04-18T07:24:44.159Z,13.70
2023-04-18T07:27:11.688Z,14.90
2023-04-18T07:29:40.524Z,12.88
2023-04-18T07:32:08.629Z,13.00
2023-04-18T07:34:37.498Z,13.50
2023-04-18T07:37:05.160Z,14.07
2023-04-18T07:39:35.854Z,13.02
2023-04-18T07:42:04.075Z,14.07
2023-04-18T07:44:31.891Z,13.05
2023-04-18T07:47:00.775Z,13.70
2023-04-18T07:49:28.260Z,12.13
2023-04-18T07:51:55.727Z,13.10
2023-04-18T07:54:23.212Z,13.30
2023-04-18T07:56:50.726Z,13.73
2023-04-18T07:59:18.384Z,13.27
2023-04-18T08:01:45.889Z,13.90
2023-04-18T08:04:15.816Z,13.18
2023-04-18T08:06:43.489Z,13.02
2023-04-18T08:09:12.061Z,12.88
2023-04-18T08:11:41.281Z,13.38
2023-04-18T08:14:08.977Z,12.95
2023-04-18T08:16:36.678Z,13.35
2023-04-18T08:19:04.288Z,12.93
2023-04-18T08:21:33.869Z,13.27
2023-04-18T08:24:01.332Z,12.77
2023-04-18T08:26:28.880Z,14.35
2023-04-18T08:28:56.404Z,15.00
2023-04-18T08:31:23.951Z,14.20
2023-04-18T08:33:51.515Z,15.27
2023-04-18T08:36:19.081Z,13.68
2023-04-18T08:38:48.052Z,12.85
2023-04-18T08:41:17.232Z,14.05
2023-04-18T08:43:48.623Z,14.02
2023-04-18T08:46:17.111Z,13.65
2023-04-18T08:48:45.139Z,14.13
2023-04-18T08:51:12.630Z,13.68
2023-04-18T08:53:41.968Z,14.95
2023-04-18T08:56:14.643Z,14.70
2023-04-18T08:58:42.168Z,13.68
2023-04-18T09:01:10.760Z,14.27
2023-04-18T09:03:40.215Z,14.65
2023-04-18T09:06:12.621Z,14.68
2023-04-18T09:08:41.915Z,15.95
2023-04-18T09:11:24.620Z,14.45
2023-04-18T09:13:52.186Z,15.02
2023-04-18T09:16:22.948Z,14.48
2023-04-18T09:19:10.388Z,14.40
2023-04-18T09:21:40.360Z,14.40
2023-04-18T09:24:20.814Z,14.23
2023-04-18T09:26:51.278Z,14.02
2023-04-18T09:29:22.521Z,14.30
2023-04-18T09:32:01.232Z,14.75
2023-04-18T09:34:29.564Z,13.55
2023-04-18T09:37:07.758Z,14.10
2023-04-18T09:39:35.602Z,13.88
2023-04-18T09:42:04.736Z,14.30
2023-04-18T09:44:32.607Z,14.60
2023-04-18T09:47:00.339Z,13.30
2023-04-18T09:49:28.200Z,13.80
2023-04-18T09:51:56.728Z,13.55
2023-04-18T09:54:25.145Z,14.10
2023-04-18T09:56:53.984Z,13.77
2023-04-18T09:59:35.519Z,13.75
2023-04-18T10:02:04.499Z,13.75
2023-04-18T10:04:32.377Z,13.68
2023-04-18T10:07:00.234Z,13.15
2023-04-18T10:09:31.404Z,14.40
2023-04-18T10:11:59.328Z,10.18
2023-04-18T10:14:28.532Z,14.68
2023-04-18T10:16:57.101Z,14.20
2023-04-18T10:19:26.035Z,14.07
2023-04-18T10:21:54.831Z,13.32
2023-04-18T10:24:48.059Z,13.63
2023-04-18T10:27:16.198Z,13.70
2023-04-18T10:29:52.911Z,13.30
2023-04-18T10:32:21.318Z,12.77
2023-04-18T10:34:50.004Z,13.48
2023-04-18T10:37:19.018Z,13.32
2023-04-18T10:39:53.542Z,13.02
2023-04-18T10:42:58.543Z,13.32
2023-04-18T10:45:28.658Z,12.07
2023-04-18T10:48:23.757Z,12.43
2023-04-18T10:51:13.742Z,13.85
2023-04-18T10:53:46.897Z,12.93
2023-04-18T10:56:15.569Z,13.85
2023-04-18T10:58:43.393Z,13.50
2023-04-18T11:01:13.780Z,13.80
2023-04-18T11:03:41.438Z,14.40
2023-04-18T11:06:09.067Z,12.35
2023-04-18T11:08:36.843Z,12.98
2023-04-18T11:11:09.022Z,13.63
2023-04-18T11:13:37.368Z,13.15
2023-04-18T11:16:05.608Z,13.48
2023-04-18T11:18:42.107Z,13.77
2023-04-18T11:21:09.655Z,14.18
2023-04-18T11:23:37.112Z,13.55
2023-04-18T11:26:04.579Z,12.95
2023-04-18T11:28:32.957Z,13.00
2023-04-18T11:31:02.896Z,12.18
2023-04-18T11:33:31.276Z,12.35
2023-04-18T11:36:00.522Z,12.07
2023-04-18T11:38:29.839Z,12.68
2023-04-18T11:40:57.521Z,12.70
2023-04-18T11:43:25.980Z,12.45
2023-04-18T11:45:54.738Z,12.57
2023-04-18T11:48:22.479Z,12.98
2023-04-18T11:50:50.320Z,11.82
2023-04-18T11:56:20.715Z,11.65
2023-04-18T11:58:48.451Z,12.27
2023-04-18T12:01:17.511Z,11.30
2023-04-18T12:03:45.428Z,12.23
2023-04-18T12:06:13.339Z,11.13
2023-04-18T12:08:44.352Z,12.27
2023-04-18T12:11:22.243Z,8.57
2023-04-18T12:13:50.017Z,11.98
2023-04-18T12:16:17.464Z,11.48
2023-04-18T12:18:47.357Z,11.52
2023-04-18T12:21:17.002Z,10.82
2023-04-18T12:23:45.984Z,11.90
2023-04-18T12:26:15.082Z,12.63
2023-04-18T12:28:46.041Z,11.40
2023-04-18T12:31:13.712Z,11.10
2023-04-18T12:33:41.213Z,11.02
2023-04-18T12:36:10.005Z,11.73
2023-04-18T12:38:37.699Z,11.00
2023-04-18T12:41:05.570Z,11.25
2023-04-18T12:43:33.333Z,10.90
2023-04-18T12:46:02.142Z,11.73
2023-04-18T12:48:29.609Z,12.20
2023-04-18T12:50:57.062Z,11.50
2023-04-18T12:53:24.595Z,11.93
2023-04-18T12:55:52.903Z,11.98
2023-04-18T12:58:20.791Z,12.18
2023-04-18T13:00:48.285Z,13.30
2023-04-18T13:03:17.398Z,13.88
2023-04-18T13:05:45.042Z,13.55
2023-04-18T13:08:16.990Z,13.57
2023-04-18T13:10:45.665Z,13.45
2023-04-18T13:13:13.367Z,14.32
2023-04-18T13:15:41.217Z,12.90
2023-04-18T13:18:08.979Z,15.00
2023-04-18T13:20:37.969Z,14.63
2023-04-18T13:23:05.644Z,14.32
2023-04-18T13:25:33.171Z,14.20
2023-04-18T13:28:01.067Z,14.02
2023-04-18T13:30:28.845Z,14.88
2023-04-18T13:32:56.905Z,13.90
2023-04-18T13:35:24.543Z,14.52
2023-04-18T13:37:53.536Z,14.35
2023-04-18T13:40:21.068Z,13.57
2023-04-18T13:42:48.688Z,14.00
2023-04-18T13:45:16.308Z,14.00
2023-04-18T13:47:43.841Z,14.13
2023-04-18T13:50:11.823Z,14.07
2023-04-18T13:52:39.431Z,14.60
2023-04-18T13:55:10.627Z,13.85
2023-04-18T13:57:38.149Z,15.73
2023-04-18T14:00:09.288Z,15.38
2023-04-18T14:02:36.937Z,14.52
2023-04-18T14:05:04.994Z,13.95
2023-04-18T14:07:32.578Z,14.20
2023-04-18T14:10:00.505Z,14.52
2023-04-18T14:12:29.309Z,14.48
2023-04-18T14:14:56.868Z,14.23
2023-04-18T14:17:24.422Z,14.70
2023-04-18T14:19:52.163Z,13.93
2023-04-18T14:22:19.736Z,14.32
2023-04-18T14:24:47.226Z,13.38
2023-04-18T14:27:14.722Z,14.95
2023-04-18T14:29:43.553Z,13.38
2023-04-18T14:32:11.064Z,14.52
2023-04-18T14:34:38.884Z,12.65
2023-04-18T14:37:06.540Z,13.55
2023-04-18T14:39:34.249Z,13.20
2023-04-18T14:42:01.786Z,13.18
2023-04-18T14:44:30.390Z,12.20
2023-04-18T14:46:59.299Z,12.25
2023-04-18T14:49:26.850Z,12.23
2023-04-18T14:51:54.392Z,12.15
2023-04-18T14:54:21.898Z,10.98
2023-04-18T14:56:49.337Z,11.27
2023-04-18T14:59:17.214Z,12.13
2023-04-18T15:01:44.883Z,10.77
2023-04-18T15:04:13.931Z,11.77
2023-04-18T15:06:42.216Z,10.85
2023-04-18T15:09:09.722Z,10.57
2023-04-18T15:11:37.436Z,11.27
2023-04-18T15:14:04.921Z,11.18
2023-04-18T15:16:35.270Z,10.45
2023-04-18T15:19:02.920Z,10.88
2023-04-18T15:21:31.760Z,10.15
2023-04-18T15:24:00.553Z,9.73
2023-04-18T15:26:28.108Z,11.95
2023-04-18T15:28:55.632Z,10.40
2023-04-18T15:31:23.502Z,11.38
2023-04-18T15:33:51.069Z,10.60
2023-04-18T15:36:18.554Z,10.73
2023-04-18T15:38:47.405Z,10.75
2023-04-18T15:41:14.893Z,9.52
2023-04-18T15:43:42.733Z,10.90
2023-04-18T15:46:10.608Z,10.25
2023-04-18T15:48:38.235Z,9.85
2023-04-18T15:51:05.726Z,8.93
2023-04-18T15:53:33.265Z,9.98
2023-04-18T15:56:02.279Z,8.68
2023-04-18T15:58:30.304Z,9.45
2023-04-18T16:00:58.091Z,9.15
2023-04-18T16:03:25.823Z,8.98
2023-04-18T16:05:53.497Z,8.57
2023-04-18T16:08:21.136Z,8.68
2023-04-18T16:10:48.653Z,7.22
2023-04-18T16:13:17.535Z,7.50
2023-04-18T16:15:45.073Z,8.52
2023-04-18T16:18:12.577Z,7.75
2023-04-18T16:20:40.083Z,7.22
2023-04-18T16:23:07.557Z,6.85
2023-04-18T16:25:35.182Z,6.43
2023-04-18T16:28:02.885Z,6.78
2023-04-18T16:30:31.710Z,6.50
2023-04-18T16:32:59.313Z,7.38
2023-04-18T16:35:27.341Z,6.75
2023-04-18T16:37:54.819Z,5.93
2023-04-18T16:40:22.301Z,6.28
2023-04-18T16:42:49.855Z,5.20
2023-04-18T16:45:17.614Z,4.95
2023-04-18T16:47:46.475Z,4.97
2023-04-18T16:50:13.961Z,5.35
2023-04-18T16:52:41.518Z,4.30
2023-04-18T16:55:10.245Z,4.18
2023-04-18T16:57:37.791Z,5.53
2023-04-18T17:00:07.142Z,4.90
2023-04-18T17:02:35.278Z,5.03
2023-04-18T17:05:04.771Z,4.63
2023-04-18T17:07:32.390Z,4.68
2023-04-18T17:09:59.872Z,4.80
2023-04-18T17:12:27.440Z,4.45
2023-04-18T17:14:54.980Z,4.55
2023-04-18T17:17:23.674Z,5.22
2023-04-18T17:19:51.274Z,4.47
2023-04-18T17:22:20.077Z,4.60
2023-04-18T17:24:47.578Z,5.13
2023-04-18T17:27:15.081Z,4.30
2023-04-18T17:29:42.703Z,5.03
2023-04-18T17:32:10.172Z,4.75
2023-04-18T17:34:37.932Z,4.32
2023-04-18T17:37:06.260Z,4.32
2023-04-18T17:39:35.089Z,4.20
2023-04-18T17:42:02.682Z,4.47
2023-04-18T17:44:30.239Z,4.70
2023-04-18T17:46:57.771Z,4.10
2023-04-18T17:49:30.876Z,4.68
2023-04-18T17:51:58.440Z,4.35
2023-04-18T17:54:25.971Z,4.72
2023-04-18T17:56:55.113Z,4.10
2023-04-18T17:59:22.754Z,4.45
2023-04-18T18:01:50.460Z,4.70
2023-04-18T18:04:19.775Z,5.75
2023-04-18T18:06:54.822Z,5.40
2023-04-18T18:09:22.296Z,5.68
2023-04-18T18:11:49.947Z,5.72
2023-04-18T18:14:20.085Z,5.25
2023-04-18T18:16:47.567Z,5.18
2023-04-18T18:19:16.690Z,4.63
2023-04-18T18:21:44.417Z,5.22
2023-04-18T18:24:12.070Z,6.13
2023-04-18T18:26:39.517Z,5.65
2023-04-18T18:29:09.901Z,5.85
2023-04-18T18:31:39.565Z,5.90
2023-04-18T18:34:07.327Z,5.85
2023-04-18T18:36:35.033Z,7.40
2023-04-18T18:39:02.554Z,6.15
2023-04-18T18:41:30.163Z,6.93
2023-04-18T18:43:57.794Z,5.93
2023-04-18T18:46:27.163Z,7.13
2023-04-18T18:48:56.532Z,6.55
2023-04-18T18:51:24.658Z,7.40
2023-04-18T18:53:52.129Z,5.90
2023-04-18T18:56:19.842Z,5.70
2023-04-18T18:58:47.404Z,5.03
2023-04-18T19:01:15.058Z,5.47
2023-04-18T19:03:42.888Z,7.07
2023-04-18T19:06:12.163Z,5.65
2023-04-18T19:08:39.797Z,5.30
2023-04-18T19:11:07.390Z,6.03
2023-04-18T19:13:34.885Z,7.05
2023-04-18T19:16:02.519Z,9.45
2023-04-18T19:18:30.420Z,7.30
2023-04-18T19:20:58.193Z,6.90
2023-04-18T19:23:27.936Z,5.45
2023-04-18T19:25:55.637Z,6.60
2023-04-18T19:28:23.499Z,6.22
2023-04-18T19:30:51.192Z,6.47
2023-04-18T19:33:18.741Z,5.45
2023-04-18T19:35:46.364Z,6.13
2023-04-18T19:38:14.253Z,5.97
2023-04-18T19:40:43.346Z,5.82
2023-04-18T19:43:10.952Z,8.02
2023-04-18T19:45:39.174Z,5.90
2023-04-18T19:48:07.521Z,6.60
2023-04-18T19:50:35.083Z,5.82
2023-04-18T19:53:02.668Z,6.10
2023-04-18T19:55:30.404Z,5.72
2023-04-18T19:58:00.436Z,6.22
2023-04-18T20:00:28.137Z,5.65
2023-04-18T20:02:55.904Z,5.90
2023-04-18T20:05:24.082Z,6.10
2023-04-18T20:07:51.736Z,5.85
2023-04-18T20:10:20.728Z,5.90
2023-04-18T20:12:49.985Z,6.22
2023-04-18T20:15:19.408Z,6.60
2023-04-18T20:17:46.958Z,5.93
2023-04-18T20:20:14.624Z,6.63
2023-04-18T20:22:44.682Z,6.60
2023-04-18T20:25:12.107Z,6.32
2023-04-18T20:27:39.714Z,9.27
2023-04-18T20:30:08.522Z,8.63
2023-04-18T20:32:37.374Z,6.25
2023-04-18T20:35:05.488Z,7.18
2023-04-18T20:37:36.671Z,6.97
2023-04-18T20:40:08.050Z,6.95
2023-04-18T20:42:36.734Z,7.25
2023-04-18T20:45:04.312Z,7.15
2023-04-18T20:47:31.847Z,7.88
2023-04-18T20:50:01.180Z,7.53
2023-04-18T20:52:28.884Z,7.93
2023-04-18T20:54:56.376Z,7.13
2023-04-18T20:57:24.054Z,7.20
2023-04-18T20:59:51.527Z,7.13
2023-04-18T21:02:19.269Z,7.10
2023-04-18T21:04:47.662Z,7.70
2023-04-18T21:07:16.564Z,7.80
2023-04-18T21:09:44.037Z,6.60
2023-04-18T21:12:11.519Z,8.60
2023-04-18T21:14:39.745Z,7.97
2023-04-18T21:17:07.384Z,7.63
2023-04-18T21:19:34.819Z,7.30
2023-04-18T21:22:02.307Z,8.30
2023-04-18T21:24:31.139Z,7.65
2023-04-18T21:26:58.704Z,7.63
2023-04-18T21:29:26.183Z,8.23
2023-04-18T21:31:54.187Z,8.90
2023-04-18T21:34:21.711Z,6.93
2023-04-18T21:36:49.327Z,7.97
2023-04-18T21:39:16.998Z,7.90
2023-04-18T21:41:46.103Z,8.60
2023-04-18T21:44:13.898Z,9.52
2023-04-18T21:46:41.596Z,8.23
2023-04-18T21:49:09.118Z,9.00
2023-04-18T21:51:36.595Z,12.88
2023-04-18T21:54:04.639Z,9.68
2023-04-18T21:56:32.070Z,8.80
2023-04-18T21:59:01.010Z,9.98
2023-04-18T22:01:28.794Z,9.35
2023-04-18T22:03:56.673Z,9.85
2023-04-18T22:06:24.291Z,9.75
2023-04-18T22:08:51.901Z,10.10
2023-04-18T22:11:19.421Z,9.27
2023-04-18T22:13:47.358Z,9.85
2023-04-18T22:16:16.287Z,9.20
2023-04-18T22:18:43.798Z,9.55
2023-04-18T22:21:11.353Z,9.27
2023-04-18T22:23:38.808Z,9.70
2023-04-18T22:26:06.506Z,10.43
2023-04-18T22:28:34.143Z,10.18
2023-04-18T22:31:01.687Z,8.95
2023-04-18T22:33:30.874Z,9.82
2023-04-18T22:35:58.392Z,10.30
2023-04-18T22:38:26.037Z,10.07
2023-04-18T22:40:53.818Z,10.00
2023-04-18T22:43:23.672Z,9.50
2023-04-18T22:45:51.673Z,9.43
2023-04-18T22:48:19.650Z,8.27
2023-04-18T22:50:49.765Z,8.25
2023-04-18T22:53:17.737Z,9.57
2023-04-18T22:55:45.960Z,8.77
2023-04-18T22:58:13.693Z,8.68
2023-04-18T23:00:41.294Z,8.18
2023-04-18T23:03:08.921Z,8.63
2023-04-18T23:05:36.466Z,8.27
2023-04-18T23:08:06.894Z,8.10
2023-04-18T23:10:34.858Z,7.30
2023-04-18T23:13:02.407Z,6.93
2023-04-18T23:15:29.837Z,7.32
2023-04-18T23:17:57.412Z,6.60
2023-04-18T23:20:25.288Z,6.95
2023-04-18T23:22:52.841Z,6.55
2023-04-18T23:25:21.763Z,6.28
2023-04-18T23:27:49.336Z,6.88
2023-04-18T23:30:17.184Z,5.97
2023-04-18T23:32:44.694Z,6.50
2023-04-18T23:35:12.272Z,6.25
2023-04-18T23:37:39.736Z,5.72
2023-04-18T23:40:09.065Z,5.72
2023-04-18T23:42:38.230Z,5.60
2023-04-18T23:45:06.830Z,5.95
2023-04-18T23:47:34.539Z,5.63
2023-04-18T23:50:02.045Z,5.85
2023-04-18T23:52:29.530Z,5.07
2023-04-18T23:55:00.227Z,5.32
2023-04-18T23:57:28.251Z,5.05
2023-04-18T23:59:57.054Z,5.75
